sensor_id;sensor_type;location;lat;lon;timestamp;P1;durP1;ratioP1;P2;durP2;ratioP2
7080;SDS011;3582;51.506;11.948;2024-02-16T00:01:11;11.35;;;8.07;;
7080;SDS011;3582;51.506;11.948;2024-02-16T00:03:38;11.98;;;8.73;;
7080;SDS011;3582;51.506;11.948;2024-02-16T00:06:04;10.47;;;7.67;;
7080;SDS011;3582;51.506;11.948;2024-02-16T00:08:30;8.50;;;7.17;;
7080;SDS011;3582;51.506;11.948;2024-02-16T00:10:56;9.43;;;6.80;;
7080;SDS011;3582;51.506;11.948;2024-02-16T00:13:22;9.10;;;8.17;;
7080;SDS011;3582;51.506;11.948;2024-02-16T00:15:48;8.70;;;8.00;;
7080;SDS011;3582;51.506;11.948;2024-02-16T00:18:14;9.83;;;7.57;;
7080;SDS011;3582;51.506;11.948;2024-02-16T00:20:39;8.43;;;7.63;;
7080;SDS011;3582;51.506;11.948;2024-02-16T00:23:05;9.03;;;8.10;;
7080;SDS011;3582;51.506;11.948;2024-02-16T00:25:31;7.70;;;7.00;;
7080;SDS011;3582;51.506;11.948;2024-02-16T00:27:58;8.77;;;7.87;;
7080;SDS011;3582;51.506;11.948;2024-02-16T00:30:24;16.15;;;8.63;;
7080;SDS011;3582;51.506;11.948;2024-02-16T00:32:52;9.57;;;7.30;;
7080;SDS011;3582;51.506;11.948;2024-02-16T00:35:18;10.60;;;7.63;;
7080;SDS011;3582;51.506;11.948;2024-02-16T00:37:44;10.13;;;7.45;;
7080;SDS011;3582;51.506;11.948;2024-02-16T00:40:13;13.38;;;9.65;;
7080;SDS011;3582;51.506;11.948;2024-02-16T00:42:39;10.85;;;8.18;;
7080;SDS011;3582;51.506;11.948;2024-02-16T00:45:05;9.67;;;7.00;;
7080;SDS011;3582;51.506;11.948;2024-02-16T00:47:31;11.30;;;8.18;;
7080;SDS011;3582;51.506;11.948;2024-02-16T00:49:58;8.25;;;7.35;;
7080;SDS011;3582;51.506;11.948;2024-02-16T00:52:24;9.38;;;6.53;;
7080;SDS011;3582;51.506;11.948;2024-02-16T00:54:50;8.17;;;7.40;;
7080;SDS011;3582;51.506;11.948;2024-02-16T00:57:16;7.90;;;7.07;;
7080;SDS011;3582;51.506;11.948;2024-02-16T00:59:42;10.27;;;7.70;;
7080;SDS011;3582;51.506;11.948;2024-02-16T01:02:08;9.97;;;6.93;;
7080;SDS011;3582;51.506;11.948;2024-02-16T01:04:35;15.15;;;7.57;;
7080;SDS011;3582;51.506;11.948;2024-02-16T01:07:01;9.00;;;6.30;;
7080;SDS011;3582;51.506;11.948;2024-02-16T01:09:28;8.00;;;6.90;;
7080;SDS011;3582;51.506;11.948;2024-02-16T01:11:54;8.20;;;7.40;;
7080;SDS011;3582;51.506;11.948;2024-02-16T01:14:20;7.05;;;6.47;;
7080;SDS011;3582;51.506;11.948;2024-02-16T01:16:46;7.97;;;7.25;;
7080;SDS011;3582;51.506;11.948;2024-02-16T01:19:12;8.73;;;7.93;;
7080;SDS011;3582;51.506;11.948;2024-02-16T01:21:38;8.43;;;6.40;;
7080;SDS011;3582;51.506;11.948;2024-02-16T01:24:04;8.03;;;7.43;;
7080;SDS011;3582;51.506;11.948;2024-02-16T01:26:30;10.00;;;6.47;;
7080;SDS011;3582;51.506;11.948;2024-02-16T01:28:56;7.95;;;7.25;;
7080;SDS011;3582;51.506;11.948;2024-02-16T01:31:23;7.88;;;6.30;;
7080;SDS011;3582;51.506;11.948;2024-02-16T01:33:48;8.03;;;7.23;;
7080;SDS011;3582;51.506;11.948;2024-02-16T01:36:14;11.70;;;6.77;;
7080;SDS011;3582;51.506;11.948;2024-02-16T01:38:40;7.83;;;7.03;;
7080;SDS011;3582;51.506;11.948;2024-02-16T01:41:06;8.37;;;7.60;;
7080;SDS011;3582;51.506;11.948;2024-02-16T01:43:33;17.55;;;7.97;;
7080;SDS011;3582;51.506;11.948;2024-02-16T01:45:59;9.87;;;8.93;;
7080;SDS011;3582;51.506;11.948;2024-02-16T01:48:26;11.52;;;7.15;;
7080;SDS011;3582;51.506;11.948;2024-02-16T01:50:52;7.93;;;6.82;;
7080;SDS011;3582;51.506;11.948;2024-02-16T01:53:19;8.25;;;7.25;;
7080;SDS011;3582;51.506;11.948;2024-02-16T01:55:46;8.88;;;7.35;;
7080;SDS011;3582;51.506;11.948;2024-02-16T01:58:12;7.95;;;7.25;;
7080;SDS011;3582;51.506;11.948;2024-02-16T02:00:39;7.70;;;7.00;;
7080;SDS011;3582;51.506;11.948;2024-02-16T02:03:05;8.88;;;6.60;;
7080;SDS011;3582;51.506;11.948;2024-02-16T02:05:32;8.53;;;6.83;;
7080;SDS011;3582;51.506;11.948;2024-02-16T02:07:58;7.57;;;6.88;;
7080;SDS011;3582;51.506;11.948;2024-02-16T02:10:24;8.85;;;6.70;;
7080;SDS011;3582;51.506;11.948;2024-02-16T02:12:50;14.20;;;7.50;;
7080;SDS011;3582;51.506;11.948;2024-02-16T02:15:16;6.93;;;6.33;;
7080;SDS011;3582;51.506;11.948;2024-02-16T02:17:42;7.25;;;6.55;;
7080;SDS011;3582;51.506;11.948;2024-02-16T02:20:08;9.73;;;8.23;;
7080;SDS011;3582;51.506;11.948;2024-02-16T02:22:36;8.88;;;7.85;;
7080;SDS011;3582;51.506;11.948;2024-02-16T02:25:03;8.85;;;7.55;;
7080;SDS011;3582;51.506;11.948;2024-02-16T02:27:29;9.18;;;7.18;;
7080;SDS011;3582;51.506;11.948;2024-02-16T02:29:55;9.13;;;7.00;;
7080;SDS011;3582;51.506;11.948;2024-02-16T02:32:21;10.47;;;7.63;;
7080;SDS011;3582;51.506;11.948;2024-02-16T02:34:47;7.30;;;6.60;;
7080;SDS011;3582;51.506;11.948;2024-02-16T02:37:13;7.10;;;6.50;;
7080;SDS011;3582;51.506;11.948;2024-02-16T02:39:39;8.53;;;7.60;;
7080;SDS011;3582;51.506;11.948;2024-02-16T02:42:06;6.70;;;6.10;;
7080;SDS011;3582;51.506;11.948;2024-02-16T02:44:33;7.30;;;6.60;;
7080;SDS011;3582;51.506;11.948;2024-02-16T02:46:59;7.93;;;7.13;;
7080;SDS011;3582;51.506;11.948;2024-02-16T02:49:25;12.70;;;6.50;;
7080;SDS011;3582;51.506;11.948;2024-02-16T02:51:51;8.80;;;6.87;;
7080;SDS011;3582;51.506;11.948;2024-02-16T02:54:16;9.17;;;6.60;;
7080;SDS011;3582;51.506;11.948;2024-02-16T02:56:43;9.47;;;6.93;;
7080;SDS011;3582;51.506;11.948;2024-02-16T02:59:09;8.63;;;7.10;;
7080;SDS011;3582;51.506;11.948;2024-02-16T03:01:35;6.35;;;5.82;;
7080;SDS011;3582;51.506;11.948;2024-02-16T03:04:02;10.73;;;6.55;;
7080;SDS011;3582;51.506;11.948;2024-02-16T03:06:28;8.18;;;7.43;;
7080;SDS011;3582;51.506;11.948;2024-02-16T03:08:54;8.60;;;7.70;;
7080;SDS011;3582;51.506;11.948;2024-02-16T03:11:20;9.20;;;6.80;;
7080;SDS011;3582;51.506;11.948;2024-02-16T03:13:46;8.65;;;6.60;;
7080;SDS011;3582;51.506;11.948;2024-02-16T03:16:11;10.70;;;7.50;;
7080;SDS011;3582;51.506;11.948;2024-02-16T03:18:37;13.83;;;7.23;;
7080;SDS011;3582;51.506;11.948;2024-02-16T03:21:04;6.60;;;6.10;;
7080;SDS011;3582;51.506;11.948;2024-02-16T03:23:30;9.38;;;6.93;;
7080;SDS011;3582;51.506;11.948;2024-02-16T03:25:56;12.57;;;6.38;;
7080;SDS011;3582;51.506;11.948;2024-02-16T03:28:22;6.33;;;5.83;;
7080;SDS011;3582;51.506;11.948;2024-02-16T03:30:48;6.90;;;6.20;;
7080;SDS011;3582;51.506;11.948;2024-02-16T03:33:14;7.20;;;6.00;;
7080;SDS011;3582;51.506;11.948;2024-02-16T03:35:39;8.00;;;6.80;;
7080;SDS011;3582;51.506;11.948;2024-02-16T03:38:06;7.90;;;6.63;;
7080;SDS011;3582;51.506;11.948;2024-02-16T03:40:33;8.48;;;6.35;;
7080;SDS011;3582;51.506;11.948;2024-02-16T03:42:59;6.87;;;6.27;;
7080;SDS011;3582;51.506;11.948;2024-02-16T03:45:25;6.20;;;5.68;;
7080;SDS011;3582;51.506;11.948;2024-02-16T03:47:54;13.55;;;6.55;;
7080;SDS011;3582;51.506;11.948;2024-02-16T03:50:20;5.80;;;5.30;;
7080;SDS011;3582;51.506;11.948;2024-02-16T03:52:47;8.27;;;5.38;;
7080;SDS011;3582;51.506;11.948;2024-02-16T03:55:13;5.40;;;4.90;;
7080;SDS011;3582;51.506;11.948;2024-02-16T03:57:39;6.70;;;6.10;;
7080;SDS011;3582;51.506;11.948;2024-02-16T04:00:06;6.47;;;5.28;;
7080;SDS011;3582;51.506;11.948;2024-02-16T04:02:32;6.28;;;5.65;;
7080;SDS011;3582;51.506;11.948;2024-02-16T04:04:58;7.53;;;5.83;;
7080;SDS011;3582;51.506;11.948;2024-02-16T04:07:24;5.63;;;5.00;;
7080;SDS011;3582;51.506;11.948;2024-02-16T04:09:49;6.77;;;5.20;;
7080;SDS011;3582;51.506;11.948;2024-02-16T04:12:15;6.40;;;5.73;;
7080;SDS011;3582;51.506;11.948;2024-02-16T04:14:41;6.27;;;5.43;;
7080;SDS011;3582;51.506;11.948;2024-02-16T04:17:08;7.32;;;5.72;;
7080;SDS011;3582;51.506;11.948;2024-02-16T04:19:36;9.50;;;6.40;;
7080;SDS011;3582;51.506;11.948;2024-02-16T04:22:02;17.45;;;7.45;;
7080;SDS011;3582;51.506;11.948;2024-02-16T04:24:28;15.33;;;6.40;;
7080;SDS011;3582;51.506;11.948;2024-02-16T04:26:54;9.20;;;5.47;;
7080;SDS011;3582;51.506;11.948;2024-02-16T04:29:20;16.30;;;6.63;;
7080;SDS011;3582;51.506;11.948;2024-02-16T04:31:46;10.47;;;5.70;;
7080;SDS011;3582;51.506;11.948;2024-02-16T04:34:13;5.80;;;5.30;;
7080;SDS011;3582;51.506;11.948;2024-02-16T04:36:40;5.65;;;5.10;;
7080;SDS011;3582;51.506;11.948;2024-02-16T04:39:06;9.93;;;6.15;;
7080;SDS011;3582;51.506;11.948;2024-02-16T04:41:34;6.20;;;5.60;;
7080;SDS011;3582;51.506;11.948;2024-02-16T04:44:00;11.30;;;5.70;;
7080;SDS011;3582;51.506;11.948;2024-02-16T04:46:26;6.33;;;5.67;;
7080;SDS011;3582;51.506;11.948;2024-02-16T04:48:52;5.90;;;5.27;;
7080;SDS011;3582;51.506;11.948;2024-02-16T04:51:19;6.88;;;6.28;;
7080;SDS011;3582;51.506;11.948;2024-02-16T04:53:45;5.20;;;4.60;;
7080;SDS011;3582;51.506;11.948;2024-02-16T04:56:11;7.60;;;5.03;;
7080;SDS011;3582;51.506;11.948;2024-02-16T04:58:40;6.03;;;4.77;;
7080;SDS011;3582;51.506;11.948;2024-02-16T05:01:06;7.72;;;5.30;;
7080;SDS011;3582;51.506;11.948;2024-02-16T05:03:32;4.90;;;3.90;;
7080;SDS011;3582;51.506;11.948;2024-02-16T05:05:59;9.10;;;4.50;;
7080;SDS011;3582;51.506;11.948;2024-02-16T05:08:25;6.10;;;5.55;;
7080;SDS011;3582;51.506;11.948;2024-02-16T05:10:51;5.33;;;4.10;;
7080;SDS011;3582;51.506;11.948;2024-02-16T05:13:17;6.13;;;5.20;;
7080;SDS011;3582;51.506;11.948;2024-02-16T05:15:43;5.63;;;5.00;;
7080;SDS011;3582;51.506;11.948;2024-02-16T05:18:09;4.53;;;4.23;;
7080;SDS011;3582;51.506;11.948;2024-02-16T05:20:37;5.10;;;4.60;;
7080;SDS011;3582;51.506;11.948;2024-02-16T05:23:03;5.20;;;4.70;;
7080;SDS011;3582;51.506;11.948;2024-02-16T05:25:29;6.47;;;3.70;;
7080;SDS011;3582;51.506;11.948;2024-02-16T05:27:55;5.90;;;5.30;;
7080;SDS011;3582;51.506;11.948;2024-02-16T05:30:21;6.93;;;4.00;;
7080;SDS011;3582;51.506;11.948;2024-02-16T05:32:47;7.17;;;4.60;;
7080;SDS011;3582;51.506;11.948;2024-02-16T05:35:14;5.03;;;4.25;;
7080;SDS011;3582;51.506;11.948;2024-02-16T05:37:42;4.60;;;4.22;;
7080;SDS011;3582;51.506;11.948;2024-02-16T05:40:09;4.90;;;3.90;;
7080;SDS011;3582;51.506;11.948;2024-02-16T05:42:50;9.33;;;7.20;;
7080;SDS011;3582;51.506;11.948;2024-02-16T05:45:16;5.50;;;3.90;;
7080;SDS011;3582;51.506;11.948;2024-02-16T05:47:43;10.20;;;4.63;;
7080;SDS011;3582;51.506;11.948;2024-02-16T05:50:13;8.35;;;4.55;;
7080;SDS011;3582;51.506;11.948;2024-02-16T05:52:40;8.65;;;4.88;;
7080;SDS011;3582;51.506;11.948;2024-02-16T05:55:09;4.20;;;3.35;;
7080;SDS011;3582;51.506;11.948;2024-02-16T05:57:35;5.97;;;3.60;;
7080;SDS011;3582;51.506;11.948;2024-02-16T06:00:02;10.68;;;4.90;;
7080;SDS011;3582;51.506;11.948;2024-02-16T06:02:29;4.85;;;4.35;;
7080;SDS011;3582;51.506;11.948;2024-02-16T06:04:55;10.87;;;3.93;;
7080;SDS011;3582;51.506;11.948;2024-02-16T06:07:21;4.10;;;3.57;;
7080;SDS011;3582;51.506;11.948;2024-02-16T06:09:47;10.00;;;4.43;;
7080;SDS011;3582;51.506;11.948;2024-02-16T06:12:13;11.23;;;4.90;;
7080;SDS011;3582;51.506;11.948;2024-02-16T06:14:40;7.57;;;5.20;;
7080;SDS011;3582;51.506;11.948;2024-02-16T06:17:06;5.47;;;4.50;;
7080;SDS011;3582;51.506;11.948;2024-02-16T06:19:33;8.00;;;7.15;;
7080;SDS011;3582;51.506;11.948;2024-02-16T06:21:59;4.95;;;3.90;;
7080;SDS011;3582;51.506;11.948;2024-02-16T06:24:25;7.53;;;4.90;;
7080;SDS011;3582;51.506;11.948;2024-02-16T06:26:51;5.15;;;4.25;;
7080;SDS011;3582;51.506;11.948;2024-02-16T06:29:17;16.00;;;5.07;;
7080;SDS011;3582;51.506;11.948;2024-02-16T06:31:46;13.60;;;4.40;;
7080;SDS011;3582;51.506;11.948;2024-02-16T06:34:13;6.05;;;3.55;;
7080;SDS011;3582;51.506;11.948;2024-02-16T06:36:38;6.18;;;4.28;;
7080;SDS011;3582;51.506;11.948;2024-02-16T06:39:04;6.43;;;3.90;;
7080;SDS011;3582;51.506;11.948;2024-02-16T06:41:30;16.90;;;5.77;;
7080;SDS011;3582;51.506;11.948;2024-02-16T06:43:56;4.47;;;3.80;;
7080;SDS011;3582;51.506;11.948;2024-02-16T06:46:22;7.27;;;4.57;;
7080;SDS011;3582;51.506;11.948;2024-02-16T06:48:49;10.93;;;3.97;;
7080;SDS011;3582;51.506;11.948;2024-02-16T06:51:17;8.90;;;4.30;;
7080;SDS011;3582;51.506;11.948;2024-02-16T06:53:43;4.47;;;3.60;;
7080;SDS011;3582;51.506;11.948;2024-02-16T06:56:09;13.53;;;5.33;;
7080;SDS011;3582;51.506;11.948;2024-02-16T06:58:35;7.50;;;3.77;;
7080;SDS011;3582;51.506;11.948;2024-02-16T07:01:02;8.20;;;3.40;;
7080;SDS011;3582;51.506;11.948;2024-02-16T07:03:28;12.60;;;4.07;;
7080;SDS011;3582;51.506;11.948;2024-02-16T07:05:54;8.90;;;3.83;;
7080;SDS011;3582;51.506;11.948;2024-02-16T07:08:21;6.67;;;5.47;;
7080;SDS011;3582;51.506;11.948;2024-02-16T07:10:48;9.20;;;5.40;;
7080;SDS011;3582;51.506;11.948;2024-02-16T07:13:16;4.70;;;4.30;;
7080;SDS011;3582;51.506;11.948;2024-02-16T07:15:42;11.57;;;4.17;;
7080;SDS011;3582;51.506;11.948;2024-02-16T07:18:08;8.33;;;4.23;;
7080;SDS011;3582;51.506;11.948;2024-02-16T07:20:34;6.63;;;3.97;;
7080;SDS011;3582;51.506;11.948;2024-02-16T07:23:01;5.33;;;3.80;;
7080;SDS011;3582;51.506;11.948;2024-02-16T07:25:27;11.97;;;4.53;;
7080;SDS011;3582;51.506;11.948;2024-02-16T07:27:53;6.20;;;3.93;;
7080;SDS011;3582;51.506;11.948;2024-02-16T07:30:19;5.70;;;4.30;;
7080;SDS011;3582;51.506;11.948;2024-02-16T07:32:48;12.63;;;3.80;;
7080;SDS011;3582;51.506;11.948;2024-02-16T07:35:15;6.50;;;4.30;;
7080;SDS011;3582;51.506;11.948;2024-02-16T07:37:41;8.73;;;4.47;;
7080;SDS011;3582;51.506;11.948;2024-02-16T07:40:08;7.63;;;4.60;;
7080;SDS011;3582;51.506;11.948;2024-02-16T07:42:38;14.50;;;5.60;;
7080;SDS011;3582;51.506;11.948;2024-02-16T07:45:05;7.30;;;4.00;;
7080;SDS011;3582;51.506;11.948;2024-02-16T07:47:31;10.87;;;4.80;;
7080;SDS011;3582;51.506;11.948;2024-02-16T07:49:57;4.87;;;3.80;;
7080;SDS011;3582;51.506;11.948;2024-02-16T07:52:23;8.90;;;4.57;;
7080;SDS011;3582;51.506;11.948;2024-02-16T07:54:49;5.30;;;3.67;;
7080;SDS011;3582;51.506;11.948;2024-02-16T07:57:16;10.50;;;3.53;;
7080;SDS011;3582;51.506;11.948;2024-02-16T07:59:42;6.87;;;3.43;;
7080;SDS011;3582;51.506;11.948;2024-02-16T08:02:08;4.40;;;3.40;;
7080;SDS011;3582;51.506;11.948;2024-02-16T08:04:34;4.23;;;3.23;;
7080;SDS011;3582;51.506;11.948;2024-02-16T08:07:00;10.47;;;3.70;;
7080;SDS011;3582;51.506;11.948;2024-02-16T08:09:26;7.40;;;4.90;;
7080;SDS011;3582;51.506;11.948;2024-02-16T08:11:52;16.10;;;4.67;;
7080;SDS011;3582;51.506;11.948;2024-02-16T08:14:18;3.17;;;2.93;;
7080;SDS011;3582;51.506;11.948;2024-02-16T08:16:44;8.50;;;3.80;;
7080;SDS011;3582;51.506;11.948;2024-02-16T08:19:10;6.43;;;2.83;;
7080;SDS011;3582;51.506;11.948;2024-02-16T08:21:38;4.63;;;3.10;;
7080;SDS011;3582;51.506;11.948;2024-02-16T08:24:05;5.70;;;3.73;;
7080;SDS011;3582;51.506;11.948;2024-02-16T08:26:31;7.93;;;3.70;;
7080;SDS011;3582;51.506;11.948;2024-02-16T08:28:56;11.53;;;3.37;;
7080;SDS011;3582;51.506;11.948;2024-02-16T08:31:22;4.03;;;3.57;;
7080;SDS011;3582;51.506;11.948;2024-02-16T08:33:48;17.07;;;3.90;;
7080;SDS011;3582;51.506;11.948;2024-02-16T08:36:14;8.73;;;3.90;;
7080;SDS011;3582;51.506;11.948;2024-02-16T08:38:40;7.50;;;3.40;;
7080;SDS011;3582;51.506;11.948;2024-02-16T08:41:06;13.13;;;3.50;;
7080;SDS011;3582;51.506;11.948;2024-02-16T08:43:32;8.53;;;3.03;;
7080;SDS011;3582;51.506;11.948;2024-02-16T08:45:58;12.03;;;4.27;;
7080;SDS011;3582;51.506;11.948;2024-02-16T08:48:24;3.27;;;2.97;;
7080;SDS011;3582;51.506;11.948;2024-02-16T08:50:50;6.70;;;2.80;;
7080;SDS011;3582;51.506;11.948;2024-02-16T08:53:16;5.57;;;3.50;;
7080;SDS011;3582;51.506;11.948;2024-02-16T08:55:42;4.27;;;2.70;;
7080;SDS011;3582;51.506;11.948;2024-02-16T08:58:08;6.63;;;3.20;;
7080;SDS011;3582;51.506;11.948;2024-02-16T09:00:34;3.40;;;2.80;;
7080;SDS011;3582;51.506;11.948;2024-02-16T09:03:00;5.10;;;2.93;;
7080;SDS011;3582;51.506;11.948;2024-02-16T09:05:27;6.50;;;3.30;;
7080;SDS011;3582;51.506;11.948;2024-02-16T09:07:53;6.97;;;2.90;;
7080;SDS011;3582;51.506;11.948;2024-02-16T09:10:19;4.10;;;2.73;;
7080;SDS011;3582;51.506;11.948;2024-02-16T09:12:45;3.53;;;3.23;;
7080;SDS011;3582;51.506;11.948;2024-02-16T09:15:11;9.87;;;2.73;;
7080;SDS011;3582;51.506;11.948;2024-02-16T09:17:37;7.43;;;3.10;;
7080;SDS011;3582;51.506;11.948;2024-02-16T09:20:03;6.90;;;3.30;;
7080;SDS011;3582;51.506;11.948;2024-02-16T09:22:33;2.90;;;2.70;;
7080;SDS011;3582;51.506;11.948;2024-02-16T09:25:00;10.67;;;2.90;;
7080;SDS011;3582;51.506;11.948;2024-02-16T09:27:26;2.93;;;2.70;;
7080;SDS011;3582;51.506;11.948;2024-02-16T09:29:52;4.40;;;3.40;;
7080;SDS011;3582;51.506;11.948;2024-02-16T09:32:18;3.93;;;2.80;;
7080;SDS011;3582;51.506;11.948;2024-02-16T09:34:44;6.70;;;2.93;;
7080;SDS011;3582;51.506;11.948;2024-02-16T09:37:10;5.33;;;2.60;;
7080;SDS011;3582;51.506;11.948;2024-02-16T09:39:37;8.03;;;3.20;;
7080;SDS011;3582;51.506;11.948;2024-02-16T09:42:04;3.63;;;2.10;;
7080;SDS011;3582;51.506;11.948;2024-02-16T09:44:29;6.43;;;3.30;;
7080;SDS011;3582;51.506;11.948;2024-02-16T09:46:56;3.30;;;3.00;;
7080;SDS011;3582;51.506;11.948;2024-02-16T09:49:22;3.97;;;3.57;;
7080;SDS011;3582;51.506;11.948;2024-02-16T09:51:49;6.57;;;3.13;;
7080;SDS011;3582;51.506;11.948;2024-02-16T09:54:15;8.43;;;3.90;;
7080;SDS011;3582;51.506;11.948;2024-02-16T09:56:41;6.70;;;4.47;;
7080;SDS011;3582;51.506;11.948;2024-02-16T09:59:07;8.03;;;3.47;;
7080;SDS011;3582;51.506;11.948;2024-02-16T10:01:33;8.00;;;4.13;;
7080;SDS011;3582;51.506;11.948;2024-02-16T10:04:05;3.80;;;3.50;;
7080;SDS011;3582;51.506;11.948;2024-02-16T10:06:45;4.03;;;3.60;;
7080;SDS011;3582;51.506;11.948;2024-02-16T10:09:21;4.70;;;4.03;;
7080;SDS011;3582;51.506;11.948;2024-02-16T10:11:47;4.83;;;3.37;;
7080;SDS011;3582;51.506;11.948;2024-02-16T10:14:13;5.27;;;3.57;;
7080;SDS011;3582;51.506;11.948;2024-02-16T10:16:39;12.97;;;4.20;;
7080;SDS011;3582;51.506;11.948;2024-02-16T10:19:06;5.03;;;3.93;;
7080;SDS011;3582;51.506;11.948;2024-02-16T10:21:32;7.23;;;4.97;;
7080;SDS011;3582;51.506;11.948;2024-02-16T10:24:02;6.07;;;4.70;;
7080;SDS011;3582;51.506;11.948;2024-02-16T10:26:29;4.57;;;4.17;;
7080;SDS011;3582;51.506;11.948;2024-02-16T10:28:55;5.33;;;3.73;;
7080;SDS011;3582;51.506;11.948;2024-02-16T10:31:23;9.47;;;5.53;;
7080;SDS011;3582;51.506;11.948;2024-02-16T10:34:11;5.30;;;3.90;;
7080;SDS011;3582;51.506;11.948;2024-02-16T10:36:37;5.87;;;3.87;;
7080;SDS011;3582;51.506;11.948;2024-02-16T10:39:04;4.93;;;3.40;;
7080;SDS011;3582;51.506;11.948;2024-02-16T10:41:40;5.10;;;4.07;;
7080;SDS011;3582;51.506;11.948;2024-02-16T10:44:06;6.03;;;3.90;;
7080;SDS011;3582;51.506;11.948;2024-02-16T10:46:32;4.63;;;3.67;;
7080;SDS011;3582;51.506;11.948;2024-02-16T10:48:59;4.27;;;3.80;;
7080;SDS011;3582;51.506;11.948;2024-02-16T10:51:30;6.63;;;4.50;;
7080;SDS011;3582;51.506;11.948;2024-02-16T10:53:57;3.63;;;3.33;;
7080;SDS011;3582;51.506;11.948;2024-02-16T10:56:34;7.70;;;3.97;;
7080;SDS011;3582;51.506;11.948;2024-02-16T10:59:04;7.40;;;3.80;;
7080;SDS011;3582;51.506;11.948;2024-02-16T11:01:37;7.57;;;4.20;;
7080;SDS011;3582;51.506;11.948;2024-02-16T11:04:03;5.60;;;3.90;;
7080;SDS011;3582;51.506;11.948;2024-02-16T11:06:30;3.83;;;3.40;;
7080;SDS011;3582;51.506;11.948;2024-02-16T11:09:01;8.40;;;4.70;;
7080;SDS011;3582;51.506;11.948;2024-02-16T11:11:32;6.63;;;3.83;;
7080;SDS011;3582;51.506;11.948;2024-02-16T11:14:01;10.30;;;5.10;;
7080;SDS011;3582;51.506;11.948;2024-02-16T11:16:28;7.77;;;4.43;;
7080;SDS011;3582;51.506;11.948;2024-02-16T11:18:54;9.40;;;3.83;;
7080;SDS011;3582;51.506;11.948;2024-02-16T11:21:22;11.47;;;4.10;;
7080;SDS011;3582;51.506;11.948;2024-02-16T11:23:47;7.57;;;5.43;;
7080;SDS011;3582;51.506;11.948;2024-02-16T11:26:14;9.23;;;4.43;;
7080;SDS011;3582;51.506;11.948;2024-02-16T11:28:42;10.30;;;4.63;;
7080;SDS011;3582;51.506;11.948;2024-02-16T11:31:08;13.10;;;4.10;;
7080;SDS011;3582;51.506;11.948;2024-02-16T11:33:34;8.50;;;5.20;;
7080;SDS011;3582;51.506;11.948;2024-02-16T11:36:01;9.93;;;3.47;;
7080;SDS011;3582;51.506;11.948;2024-02-16T11:38:30;20.07;;;5.47;;
7080;SDS011;3582;51.506;11.948;2024-02-16T11:40:57;6.87;;;3.77;;
7080;SDS011;3582;51.506;11.948;2024-02-16T11:43:23;10.80;;;3.90;;
7080;SDS011;3582;51.506;11.948;2024-02-16T11:45:50;6.03;;;3.47;;
7080;SDS011;3582;51.506;11.948;2024-02-16T11:48:22;10.43;;;4.30;;
7080;SDS011;3582;51.506;11.948;2024-02-16T11:50:49;8.73;;;4.20;;
7080;SDS011;3582;51.506;11.948;2024-02-16T11:53:18;5.77;;;3.07;;
7080;SDS011;3582;51.506;11.948;2024-02-16T11:55:48;5.20;;;3.60;;
7080;SDS011;3582;51.506;11.948;2024-02-16T11:58:17;5.70;;;3.00;;
7080;SDS011;3582;51.506;11.948;2024-02-16T12:00:44;6.23;;;3.53;;
7080;SDS011;3582;51.506;11.948;2024-02-16T12:03:10;10.93;;;3.57;;
7080;SDS011;3582;51.506;11.948;2024-02-16T12:05:36;6.27;;;3.90;;
7080;SDS011;3582;51.506;11.948;2024-02-16T12:08:01;9.23;;;3.70;;
7080;SDS011;3582;51.506;11.948;2024-02-16T12:10:28;5.30;;;3.03;;
7080;SDS011;3582;51.506;11.948;2024-02-16T12:12:54;5.67;;;3.20;;
7080;SDS011;3582;51.506;11.948;2024-02-16T12:15:21;4.80;;;3.10;;
7080;SDS011;3582;51.506;11.948;2024-02-16T12:17:57;5.07;;;3.50;;
7080;SDS011;3582;51.506;11.948;2024-02-16T12:20:24;10.10;;;3.23;;
7080;SDS011;3582;51.506;11.948;2024-02-16T12:22:50;6.50;;;3.70;;
7080;SDS011;3582;51.506;11.948;2024-02-16T12:25:17;3.53;;;3.23;;
7080;SDS011;3582;51.506;11.948;2024-02-16T12:27:43;7.07;;;3.37;;
7080;SDS011;3582;51.506;11.948;2024-02-16T12:30:09;7.83;;;3.50;;
7080;SDS011;3582;51.506;11.948;2024-02-16T12:32:35;6.67;;;3.33;;
7080;SDS011;3582;51.506;11.948;2024-02-16T12:35:01;5.27;;;3.70;;
7080;SDS011;3582;51.506;11.948;2024-02-16T12:37:30;11.67;;;3.57;;
7080;SDS011;3582;51.506;11.948;2024-02-16T12:39:56;12.17;;;4.00;;
7080;SDS011;3582;51.506;11.948;2024-02-16T12:42:21;5.07;;;3.33;;
7080;SDS011;3582;51.506;11.948;2024-02-16T12:44:47;10.83;;;4.33;;
7080;SDS011;3582;51.506;11.948;2024-02-16T12:47:13;6.10;;;3.23;;
7080;SDS011;3582;51.506;11.948;2024-02-16T12:49:39;10.27;;;3.97;;
7080;SDS011;3582;51.506;11.948;2024-02-16T12:52:05;18.10;;;4.77;;
7080;SDS011;3582;51.506;11.948;2024-02-16T12:54:32;9.47;;;3.57;;
7080;SDS011;3582;51.506;11.948;2024-02-16T12:56:58;3.80;;;3.23;;
7080;SDS011;3582;51.506;11.948;2024-02-16T12:59:24;11.83;;;5.00;;
7080;SDS011;3582;51.506;11.948;2024-02-16T13:01:51;5.03;;;3.03;;
7080;SDS011;3582;51.506;11.948;2024-02-16T13:04:17;5.43;;;3.40;;
7080;SDS011;3582;51.506;11.948;2024-02-16T13:06:46;17.23;;;4.30;;
7080;SDS011;3582;51.506;11.948;2024-02-16T13:09:12;4.90;;;3.23;;
7080;SDS011;3582;51.506;11.948;2024-02-16T13:11:38;2.60;;;2.40;;
7080;SDS011;3582;51.506;11.948;2024-02-16T13:14:05;8.90;;;3.77;;
7080;SDS011;3582;51.506;11.948;2024-02-16T13:16:31;6.97;;;3.83;;
7080;SDS011;3582;51.506;11.948;2024-02-16T13:18:57;3.90;;;2.90;;
7080;SDS011;3582;51.506;11.948;2024-02-16T13:21:23;8.97;;;3.10;;
7080;SDS011;3582;51.506;11.948;2024-02-16T13:23:49;9.17;;;3.80;;
7080;SDS011;3582;51.506;11.948;2024-02-16T13:26:15;5.87;;;3.27;;
7080;SDS011;3582;51.506;11.948;2024-02-16T13:28:41;7.03;;;3.33;;
7080;SDS011;3582;51.506;11.948;2024-02-16T13:31:07;6.17;;;2.70;;
7080;SDS011;3582;51.506;11.948;2024-02-16T13:33:35;6.60;;;3.40;;
7080;SDS011;3582;51.506;11.948;2024-02-16T13:36:01;6.70;;;3.23;;
7080;SDS011;3582;51.506;11.948;2024-02-16T13:38:28;4.57;;;3.13;;
7080;SDS011;3582;51.506;11.948;2024-02-16T13:40:54;10.17;;;4.70;;
7080;SDS011;3582;51.506;11.948;2024-02-16T13:43:20;3.83;;;3.20;;
7080;SDS011;3582;51.506;11.948;2024-02-16T13:45:50;11.43;;;4.23;;
7080;SDS011;3582;51.506;11.948;2024-02-16T13:48:16;7.33;;;4.17;;
7080;SDS011;3582;51.506;11.948;2024-02-16T13:50:48;7.70;;;4.50;;
7080;SDS011;3582;51.506;11.948;2024-02-16T13:53:14;16.73;;;6.53;;
7080;SDS011;3582;51.506;11.948;2024-02-16T13:55:41;9.90;;;5.70;;
7080;SDS011;3582;51.506;11.948;2024-02-16T13:58:08;9.20;;;6.33;;
7080;SDS011;3582;51.506;11.948;2024-02-16T14:00:34;13.67;;;7.23;;
7080;SDS011;3582;51.506;11.948;2024-02-16T14:03:00;7.43;;;4.83;;
7080;SDS011;3582;51.506;11.948;2024-02-16T14:05:26;9.30;;;5.80;;
7080;SDS011;3582;51.506;11.948;2024-02-16T14:07:52;15.47;;;7.20;;
7080;SDS011;3582;51.506;11.948;2024-02-16T14:10:19;4.47;;;3.90;;
7080;SDS011;3582;51.506;11.948;2024-02-16T14:12:45;7.40;;;3.83;;
7080;SDS011;3582;51.506;11.948;2024-02-16T14:15:12;14.00;;;4.80;;
7080;SDS011;3582;51.506;11.948;2024-02-16T14:17:41;10.53;;;4.10;;
7080;SDS011;3582;51.506;11.948;2024-02-16T14:20:07;5.83;;;5.23;;
7080;SDS011;3582;51.506;11.948;2024-02-16T14:22:33;6.23;;;4.00;;
7080;SDS011;3582;51.506;11.948;2024-02-16T14:24:59;5.43;;;3.50;;
7080;SDS011;3582;51.506;11.948;2024-02-16T14:27:25;11.50;;;3.73;;
7080;SDS011;3582;51.506;11.948;2024-02-16T14:29:51;4.00;;;3.60;;
7080;SDS011;3582;51.506;11.948;2024-02-16T14:32:16;10.50;;;3.70;;
7080;SDS011;3582;51.506;11.948;2024-02-16T14:34:42;16.43;;;4.97;;
7080;SDS011;3582;51.506;11.948;2024-02-16T14:37:09;8.53;;;4.13;;
7080;SDS011;3582;51.506;11.948;2024-02-16T14:39:35;6.20;;;3.80;;
7080;SDS011;3582;51.506;11.948;2024-02-16T14:42:01;5.00;;;3.63;;
7080;SDS011;3582;51.506;11.948;2024-02-16T14:44:27;6.97;;;5.47;;
7080;SDS011;3582;51.506;11.948;2024-02-16T14:46:53;16.83;;;5.47;;
7080;SDS011;3582;51.506;11.948;2024-02-16T14:49:19;11.67;;;5.30;;
7080;SDS011;3582;51.506;11.948;2024-02-16T14:51:49;8.60;;;6.00;;
7080;SDS011;3582;51.506;11.948;2024-02-16T14:54:15;15.70;;;5.43;;